sensor_id;sensor_type;location;lat;lon;timestamp;pressure;altitude;pressure_sealevel;temperature;humidity
163;BME280;3946;48.958;8.284;2024-02-26T00:02:37;98503.72;;;8.56;71.60
163;BME280;3946;48.958;8.284;2024-02-26T00:05:23;98501.84;;;8.67;69.63
163;BME280;3946;48.958;8.284;2024-02-26T00:08:09;98488.97;;;8.87;67.53
163;BME280;3946;48.958;8.284;2024-02-26T00:10:54;98467.13;;;9.20;64.95
163;BME280;3946;48.958;8.284;2024-02-26T00:13:41;98459.09;;;9.61;63.14
163;BME280;3946;48.958;8.284;2024-02-26T00:16:27;98463.91;;;10.03;61.82
163;BME280;3946;48.958;8.284;2024-02-26T00:19:12;98465.66;;;10.22;62.29
163;BME280;3946;48.958;8.284;2024-02-26T00:21:57;98459.47;;;10.32;61.61
163;BME280;3946;48.958;8.284;2024-02-26T00:24:43;98469.28;;;10.38;62.18
163;BME280;3946;48.958;8.284;2024-02-26T00:27:28;98472.94;;;10.36;62.19
163;BME280;3946;48.958;8.284;2024-02-26T00:30:15;98478.00;;;10.28;64.05
163;BME280;3946;48.958;8.284;2024-02-26T00:33:00;98486.13;;;10.42;62.03
163;BME280;3946;48.958;8.284;2024-02-26T00:35:45;98479.38;;;10.32;62.60
163;BME280;3946;48.958;8.284;2024-02-26T00:38:31;98482.41;;;10.08;62.76
163;BME280;3946;48.958;8.284;2024-02-26T00:41:16;98488.28;;;10.20;63.48
163;BME280;3946;48.958;8.284;2024-02-26T00:44:01;98500.91;;;10.13;64.86
163;BME280;3946;48.958;8.284;2024-02-26T00:46:48;98519.34;;;9.91;66.73
163;BME280;3946;48.958;8.284;2024-02-26T00:49:33;98521.53;;;9.86;67.33
163;BME280;3946;48.958;8.284;2024-02-26T00:52:18;98506.59;;;9.70;66.68
163;BME280;3946;48.958;8.284;2024-02-26T00:55:05;98526.84;;;9.84;68.44
163;BME280;3946;48.958;8.284;2024-02-26T00:57:50;98530.41;;;9.73;68.62
163;BME280;3946;48.958;8.284;2024-02-26T01:00:35;98531.47;;;9.90;69.16
163;BME280;3946;48.958;8.284;2024-02-26T01:03:22;98536.22;;;10.04;68.09
163;BME280;3946;48.958;8.284;2024-02-26T01:06:07;98536.31;;;10.12;70.97
163;BME280;3946;48.958;8.284;2024-02-26T01:08:53;98554.19;;;10.06;73.57
163;BME280;3946;48.958;8.284;2024-02-26T01:11:38;98567.53;;;10.01;74.96
163;BME280;3946;48.958;8.284;2024-02-26T01:14:24;98573.81;;;9.79;77.71
163;BME280;3946;48.958;8.284;2024-02-26T01:17:09;98581.84;;;9.67;79.65
163;BME280;3946;48.958;8.284;2024-02-26T01:19:56;98578.16;;;9.60;81.47
163;BME280;3946;48.958;8.284;2024-02-26T01:22:42;98578.44;;;9.57;83.35
163;BME280;3946;48.958;8.284;2024-02-26T01:25:27;98576.91;;;9.44;85.51
163;BME280;3946;48.958;8.284;2024-02-26T01:28:12;98583.78;;;9.15;89.15
163;BME280;3946;48.958;8.284;2024-02-26T01:30:57;98577.81;;;9.05;89.30
163;BME280;3946;48.958;8.284;2024-02-26T01:33:44;98570.13;;;8.94;91.81
163;BME280;3946;48.958;8.284;2024-02-26T01:36:30;98588.22;;;8.94;92.47
163;BME280;3946;48.958;8.284;2024-02-26T01:39:15;98583.16;;;8.83;96.38
163;BME280;3946;48.958;8.284;2024-02-26T01:42:01;98587.47;;;9.12;96.28
163;BME280;3946;48.958;8.284;2024-02-26T01:44:46;98587.56;;;9.01;97.72
163;BME280;3946;48.958;8.284;2024-02-26T01:47:32;98598.69;;;8.92;94.94
163;BME280;3946;48.958;8.284;2024-02-26T01:50:17;98599.22;;;8.86;95.82
163;BME280;3946;48.958;8.284;2024-02-26T01:53:04;98601.44;;;9.10;93.96
163;BME280;3946;48.958;8.284;2024-02-26T01:55:49;98612.72;;;8.99;95.97
163;BME280;3946;48.958;8.284;2024-02-26T01:58:36;98614.97;;;8.83;98.02
163;BME280;3946;48.958;8.284;2024-02-26T02:01:22;98614.25;;;8.81;99.05
163;BME280;3946;48.958;8.284;2024-02-26T02:04:10;98610.50;;;8.64;100.00
163;BME280;3946;48.958;8.284;2024-02-26T02:06:57;98614.09;;;8.43;100.00
163;BME280;3946;48.958;8.284;2024-02-26T02:09:44;98615.53;;;8.35;100.00
163;BME280;3946;48.958;8.284;2024-02-26T02:12:30;98611.09;;;8.26;100.00
163;BME280;3946;48.958;8.284;2024-02-26T02:15:17;98613.34;;;8.20;100.00
163;BME280;3946;48.958;8.284;2024-02-26T02:18:02;98615.22;;;8.18;100.00
163;BME280;3946;48.958;8.284;2024-02-26T02:20:49;98601.47;;;8.07;100.00
163;BME280;3946;48.958;8.284;2024-02-26T02:23:34;98604.91;;;7.97;100.00
163;BME280;3946;48.958;8.284;2024-02-26T02:26:20;98608.09;;;7.89;100.00
163;BME280;3946;48.958;8.284;2024-02-26T02:29:06;98613.56;;;7.96;100.00
163;BME280;3946;48.958;8.284;2024-02-26T02:31:53;98602.63;;;7.83;100.00
163;BME280;3946;48.958;8.284;2024-02-26T02:34:39;98608.88;;;8.01;100.00
163;BME280;3946;48.958;8.284;2024-02-26T02:37:26;98603.06;;;7.88;100.00
163;BME280;3946;48.958;8.284;2024-02-26T02:40:11;98614.56;;;7.84;100.00
163;BME280;3946;48.958;8.284;2024-02-26T02:42:56;98613.22;;;7.68;100.00
163;BME280;3946;48.958;8.284;2024-02-26T02:45:42;98608.63;;;8.04;100.00
163;BME280;3946;48.958;8.284;2024-02-26T02:48:28;98601.03;;;7.70;100.00
163;BME280;3946;48.958;8.284;2024-02-26T02:51:13;98598.00;;;7.65;100.00
163;BME280;3946;48.958;8.284;2024-02-26T02:54:00;98594.16;;;7.60;100.00
163;BME280;3946;48.958;8.284;2024-02-26T02:56:45;98592.00;;;7.76;100.00
163;BME280;3946;48.958;8.284;2024-02-26T02:59:30;98596.97;;;7.89;100.00
163;BME280;3946;48.958;8.284;2024-02-26T03:02:16;98594.88;;;7.62;100.00
163;BME280;3946;48.958;8.284;2024-02-26T03:05:01;98588.56;;;7.55;100.00
163;BME280;3946;48.958;8.284;2024-02-26T03:07:46;98588.09;;;7.50;100.00
163;BME280;3946;48.958;8.284;2024-02-26T03:10:33;98587.97;;;7.83;100.00
163;BME280;3946;48.958;8.284;2024-02-26T03:13:18;98587.25;;;7.60;100.00
163;BME280;3946;48.958;8.284;2024-02-26T03:16:04;98587.03;;;7.52;100.00
163;BME280;3946;48.958;8.284;2024-02-26T03:18:50;98574.66;;;7.46;100.00
163;BME280;3946;48.958;8.284;2024-02-26T03:21:35;98576.94;;;7.60;100.00
163;BME280;3946;48.958;8.284;2024-02-26T03:24:20;98577.38;;;7.65;100.00
163;BME280;3946;48.958;8.284;2024-02-26T03:27:07;98567.47;;;7.82;100.00
163;BME280;3946;48.958;8.284;2024-02-26T03:29:53;98566.81;;;7.68;100.00
163;BME280;3946;48.958;8.284;2024-02-26T03:32:38;98559.72;;;7.82;100.00
163;BME280;3946;48.958;8.284;2024-02-26T03:35:24;98551.28;;;7.80;100.00
163;BME280;3946;48.958;8.284;2024-02-26T03:38:09;98544.72;;;7.87;100.00
163;BME280;3946;48.958;8.284;2024-02-26T03:40:54;98545.13;;;7.71;100.00
163;BME280;3946;48.958;8.284;2024-02-26T03:43:41;98546.09;;;7.70;100.00
163;BME280;3946;48.958;8.284;2024-02-26T03:46:26;98537.75;;;7.78;100.00
163;BME280;3946;48.958;8.284;2024-02-26T03:49:12;98540.81;;;7.71;100.00
163;BME280;3946;48.958;8.284;2024-02-26T03:51:58;98530.75;;;7.68;100.00
163;BME280;3946;48.958;8.284;2024-02-26T03:54:43;98524.66;;;7.69;100.00
163;BME280;3946;48.958;8.284;2024-02-26T03:57:28;98524.19;;;7.64;100.00
163;BME280;3946;48.958;8.284;2024-02-26T04:00:16;98524.59;;;7.60;100.00
163;BME280;3946;48.958;8.284;2024-02-26T04:03:01;98515.47;;;7.56;100.00
163;BME280;3946;48.958;8.284;2024-02-26T04:05:46;98518.72;;;7.58;100.00
163;BME280;3946;48.958;8.284;2024-02-26T04:08:31;98515.13;;;7.49;100.00
163;BME280;3946;48.958;8.284;2024-02-26T04:11:17;98513.81;;;7.55;100.00
163;BME280;3946;48.958;8.284;2024-02-26T04:14:02;98520.38;;;7.59;100.00
163;BME280;3946;48.958;8.284;2024-02-26T04:16:49;98527.06;;;7.50;100.00
163;BME280;3946;48.958;8.284;2024-02-26T04:19:36;98520.03;;;7.52;100.00
163;BME280;3946;48.958;8.284;2024-02-26T04:22:21;98526.81;;;7.53;100.00
163;BME280;3946;48.958;8.284;2024-02-26T04:25:07;98530.69;;;7.48;100.00
163;BME280;3946;48.958;8.284;2024-02-26T04:27:52;98542.03;;;7.56;100.00
163;BME280;3946;48.958;8.284;2024-02-26T04:30:38;98535.50;;;7.52;100.00
163;BME280;3946;48.958;8.284;2024-02-26T04:33:24;98544.41;;;7.48;100.00
163;BME280;3946;48.958;8.284;2024-02-26T04:36:13;98544.97;;;7.52;100.00
163;BME280;3946;48.958;8.284;2024-02-26T04:38:58;98541.22;;;7.56;100.00
163;BME280;3946;48.958;8.284;2024-02-26T04:41:44;98540.06;;;7.49;100.00
163;BME280;3946;48.958;8.284;2024-02-26T04:44:29;98542.34;;;7.42;100.00
163;BME280;3946;48.958;8.284;2024-02-26T04:47:15;98556.41;;;7.38;100.00
163;BME280;3946;48.958;8.284;2024-02-26T04:50:01;98547.72;;;7.39;100.00
163;BME280;3946;48.958;8.284;2024-02-26T04:52:47;98558.94;;;7.49;100.00
163;BME280;3946;48.958;8.284;2024-02-26T04:55:32;98565.91;;;7.26;100.00
163;BME280;3946;48.958;8.284;2024-02-26T04:58:17;98572.09;;;7.35;100.00
163;BME280;3946;48.958;8.284;2024-02-26T05:01:03;98574.00;;;7.22;100.00
163;BME280;3946;48.958;8.284;2024-02-26T05:03:48;98571.88;;;7.16;100.00
163;BME280;3946;48.958;8.284;2024-02-26T05:06:36;98578.78;;;7.26;100.00
163;BME280;3946;48.958;8.284;2024-02-26T05:09:21;98585.19;;;7.32;100.00
163;BME280;3946;48.958;8.284;2024-02-26T05:12:07;98589.09;;;7.26;100.00
163;BME280;3946;48.958;8.284;2024-02-26T05:14:52;98592.94;;;7.43;100.00
163;BME280;3946;48.958;8.284;2024-02-26T05:17:37;98597.16;;;7.33;100.00
163;BME280;3946;48.958;8.284;2024-02-26T05:20:23;98594.09;;;7.39;100.00
163;BME280;3946;48.958;8.284;2024-02-26T05:23:09;98596.09;;;7.47;100.00
163;BME280;3946;48.958;8.284;2024-02-26T05:25:55;98600.63;;;7.54;100.00
163;BME280;3946;48.958;8.284;2024-02-26T05:28:41;98597.16;;;7.65;100.00
163;BME280;3946;48.958;8.284;2024-02-26T05:31:26;98595.06;;;7.70;100.00
163;BME280;3946;48.958;8.284;2024-02-26T05:34:12;98595.28;;;7.67;100.00
163;BME280;3946;48.958;8.284;2024-02-26T05:36:57;98595.81;;;7.61;100.00
163;BME280;3946;48.958;8.284;2024-02-26T05:39:44;98596.69;;;7.71;100.00
163;BME280;3946;48.958;8.284;2024-02-26T05:42:30;98594.88;;;7.62;100.00
163;BME280;3946;48.958;8.284;2024-02-26T05:45:15;98602.59;;;7.51;100.00
163;BME280;3946;48.958;8.284;2024-02-26T05:48:00;98598.63;;;7.58;100.00
163;BME280;3946;48.958;8.284;2024-02-26T05:50:46;98599.44;;;7.47;100.00
163;BME280;3946;48.958;8.284;2024-02-26T05:53:31;98597.22;;;7.54;100.00
163;BME280;3946;48.958;8.284;2024-02-26T05:56:17;98598.50;;;7.48;100.00
163;BME280;3946;48.958;8.284;2024-02-26T05:59:03;98607.88;;;7.49;100.00
163;BME280;3946;48.958;8.284;2024-02-26T06:01:48;98609.41;;;7.52;100.00
163;BME280;3946;48.958;8.284;2024-02-26T06:04:33;98620.66;;;7.51;100.00
163;BME280;3946;48.958;8.284;2024-02-26T06:07:19;98617.63;;;7.46;100.00
163;BME280;3946;48.958;8.284;2024-02-26T06:10:05;98623.81;;;7.54;100.00
163;BME280;3946;48.958;8.284;2024-02-26T06:12:52;98615.66;;;7.38;100.00
163;BME280;3946;48.958;8.284;2024-02-26T06:15:37;98630.06;;;7.29;100.00
163;BME280;3946;48.958;8.284;2024-02-26T06:18:23;98638.25;;;7.34;100.00
163;BME280;3946;48.958;8.284;2024-02-26T06:21:09;98643.75;;;7.41;100.00
163;BME280;3946;48.958;8.284;2024-02-26T06:23:54;98649.59;;;7.43;100.00
163;BME280;3946;48.958;8.284;2024-02-26T06:26:40;98649.38;;;7.46;100.00
163;BME280;3946;48.958;8.284;2024-02-26T06:29:26;98646.56;;;7.38;100.00
163;BME280;3946;48.958;8.284;2024-02-26T06:32:12;98651.13;;;7.34;100.00
163;BME280;3946;48.958;8.284;2024-02-26T06:34:57;98650.41;;;7.32;100.00
163;BME280;3946;48.958;8.284;2024-02-26T06:37:43;98644.34;;;7.33;100.00
163;BME280;3946;48.958;8.284;2024-02-26T06:40:28;98663.75;;;7.49;100.00
163;BME280;3946;48.958;8.284;2024-02-26T06:43:13;98657.44;;;7.42;100.00
163;BME280;3946;48.958;8.284;2024-02-26T06:46:00;98656.72;;;7.62;100.00
163;BME280;3946;48.958;8.284;2024-02-26T06:48:47;98659.19;;;7.52;100.00
163;BME280;3946;48.958;8.284;2024-02-26T06:51:32;98659.31;;;7.51;100.00
163;BME280;3946;48.958;8.284;2024-02-26T06:54:18;98671.41;;;7.82;100.00
163;BME280;3946;48.958;8.284;2024-02-26T06:57:03;98667.88;;;7.83;100.00
163;BME280;3946;48.958;8.284;2024-02-26T06:59:49;98666.84;;;7.86;100.00
163;BME280;3946;48.958;8.284;2024-02-26T07:02:35;98672.03;;;7.75;100.00
163;BME280;3946;48.958;8.284;2024-02-26T07:05:21;98679.06;;;7.72;100.00
163;BME280;3946;48.958;8.284;2024-02-26T07:08:06;98681.13;;;7.90;100.00
163;BME280;3946;48.958;8.284;2024-02-26T07:10:51;98687.22;;;8.21;100.00
163;BME280;3946;48.958;8.284;2024-02-26T07:13:37;98681.72;;;7.93;100.00
163;BME280;3946;48.958;8.284;2024-02-26T07:16:22;98697.09;;;8.68;100.00
163;BME280;3946;48.958;8.284;2024-02-26T07:19:09;98700.09;;;8.94;100.00
163;BME280;3946;48.958;8.284;2024-02-26T07:21:54;98709.56;;;10.14;100.00
163;BME280;3946;48.958;8.284;2024-02-26T07:24:39;98708.44;;;11.68;100.00
163;BME280;3946;48.958;8.284;2024-02-26T07:27:25;98687.84;;;12.55;100.00
163;BME280;3946;48.958;8.284;2024-02-26T07:30:11;98664.94;;;11.25;100.00
163;BME280;3946;48.958;8.284;2024-02-26T07:32:56;98661.09;;;10.26;100.00
163;BME280;3946;48.958;8.284;2024-02-26T07:35:44;98662.03;;;9.96;100.00
163;BME280;3946;48.958;8.284;2024-02-26T07:38:29;98660.44;;;9.35;100.00
163;BME280;3946;48.958;8.284;2024-02-26T07:41:15;98661.50;;;9.33;100.00
163;BME280;3946;48.958;8.284;2024-02-26T07:44:00;98664.31;;;9.20;100.00
163;BME280;3946;48.958;8.284;2024-02-26T07:46:45;98674.88;;;9.07;100.00
163;BME280;3946;48.958;8.284;2024-02-26T07:49:31;98676.72;;;8.96;100.00
163;BME280;3946;48.958;8.284;2024-02-26T07:52:17;98683.72;;;8.84;100.00
163;BME280;3946;48.958;8.284;2024-02-26T07:55:03;98679.88;;;8.78;100.00
163;BME280;3946;48.958;8.284;2024-02-26T07:57:48;98680.09;;;8.66;100.00
163;BME280;3946;48.958;8.284;2024-02-26T08:00:34;98686.06;;;8.46;100.00
163;BME280;3946;48.958;8.284;2024-02-26T08:03:19;98687.72;;;8.47;100.00
163;BME280;3946;48.958;8.284;2024-02-26T08:06:04;98695.56;;;8.45;100.00
163;BME280;3946;48.958;8.284;2024-02-26T08:08:51;98697.91;;;8.48;100.00
163;BME280;3946;48.958;8.284;2024-02-26T08:11:36;98696.41;;;8.66;100.00
163;BME280;3946;48.958;8.284;2024-02-26T08:14:22;98688.22;;;8.61;100.00
163;BME280;3946;48.958;8.284;2024-02-26T08:17:07;98688.97;;;8.73;100.00
163;BME280;3946;48.958;8.284;2024-02-26T08:19:53;98693.91;;;8.76;100.00
163;BME280;3946;48.958;8.284;2024-02-26T08:22:38;98691.47;;;8.84;100.00
163;BME280;3946;48.958;8.284;2024-02-26T08:25:25;98691.41;;;8.95;100.00
163;BME280;3946;48.958;8.284;2024-02-26T08:28:11;98693.38;;;9.12;100.00
163;BME280;3946;48.958;8.284;2024-02-26T08:30:57;98698.69;;;9.41;100.00
163;BME280;3946;48.958;8.284;2024-02-26T08:33:42;98693.69;;;9.59;100.00
163;BME280;3946;48.958;8.284;2024-02-26T08:36:28;98694.03;;;9.85;100.00
163;BME280;3946;48.958;8.284;2024-02-26T08:39:13;98699.31;;;9.93;100.00
163;BME280;3946;48.958;8.284;2024-02-26T08:42:00;98700.00;;;9.95;100.00
163;BME280;3946;48.958;8.284;2024-02-26T08:44:45;98707.13;;;10.12;100.00
163;BME280;3946;48.958;8.284;2024-02-26T08:47:30;98699.63;;;10.09;100.00
163;BME280;3946;48.958;8.284;2024-02-26T08:50:17;98706.63;;;10.19;100.00
163;BME280;3946;48.958;8.284;2024-02-26T08:53:02;98708.25;;;10.20;100.00
163;BME280;3946;48.958;8.284;2024-02-26T08:55:47;98713.00;;;10.24;100.00
163;BME280;3946;48.958;8.284;2024-02-26T08:58:34;98722.16;;;10.38;100.00
163;BME280;3946;48.958;8.284;2024-02-26T09:01:19;98714.50;;;10.56;100.00
163;BME280;3946;48.958;8.284;2024-02-26T09:04:07;98719.53;;;10.57;100.00
163;BME280;3946;48.958;8.284;2024-02-26T09:06:52;98708.22;;;10.68;100.00
163;BME280;3946;48.958;8.284;2024-02-26T09:09:37;98713.91;;;10.81;100.00
163;BME280;3946;48.958;8.284;2024-02-26T09:12:23;98712.69;;;10.75;100.00
163;BME280;3946;48.958;8.284;2024-02-26T09:15:10;98711.44;;;10.89;100.00
163;BME280;3946;48.958;8.284;2024-02-26T09:17:55;98712.41;;;10.78;100.00
163;BME280;3946;48.958;8.284;2024-02-26T09:20:41;98709.28;;;10.75;100.00
163;BME280;3946;48.958;8.284;2024-02-26T09:23:27;98714.34;;;10.86;100.00
163;BME280;3946;48.958;8.284;2024-02-26T09:26:12;98705.97;;;10.92;100.00
163;BME280;3946;48.958;8.284;2024-02-26T09:28:57;98700.06;;;11.09;100.00
163;BME280;3946;48.958;8.284;2024-02-26T09:31:44;98710.47;;;10.90;100.00
163;BME280;3946;48.958;8.284;2024-02-26T09:34:31;98707.63;;;10.93;100.00
163;BME280;3946;48.958;8.284;2024-02-26T09:37:17;98706.41;;;10.88;100.00
163;BME280;3946;48.958;8.284;2024-02-26T09:40:03;98712.34;;;11.07;100.00
163;BME280;3946;48.958;8.284;2024-02-26T09:42:53;98722.78;;;11.35;100.00
163;BME280;3946;48.958;8.284;2024-02-26T09:45:42;98713.22;;;11.63;100.00
163;BME280;3946;48.958;8.284;2024-02-26T09:48:29;98716.72;;;11.71;100.00
163;BME280;3946;48.958;8.284;2024-02-26T09:51:16;98717.81;;;11.78;100.00
163;BME280;3946;48.958;8.284;2024-02-26T09:54:02;98713.28;;;11.80;100.00
163;BME280;3946;48.958;8.284;2024-02-26T09:56:49;98730.13;;;11.67;100.00
163;BME280;3946;48.958;8.284;2024-02-26T09:59:39;98728.03;;;11.80;100.00
163;BME280;3946;48.958;8.284;2024-02-26T10:02:25;98736.22;;;11.75;100.00
163;BME280;3946;48.958;8.284;2024-02-26T10:05:14;98731.38;;;11.90;100.00
163;BME280;3946;48.958;8.284;2024-02-26T10:08:01;98723.38;;;11.83;100.00
163;BME280;3946;48.958;8.284;2024-02-26T10:10:46;98732.63;;;11.86;100.00
163;BME280;3946;48.958;8.284;2024-02-26T10:13:32;98734.44;;;12.03;100.00
163;BME280;3946;48.958;8.284;2024-02-26T10:16:17;98732.09;;;12.10;100.00
163;BME280;3946;48.958;8.284;2024-02-26T10:19:02;98736.19;;;12.12;100.00
163;BME280;3946;48.958;8.284;2024-02-26T10:21:49;98743.00;;;12.13;100.00
163;BME280;3946;48.958;8.284;2024-02-26T10:24:38;98741.13;;;12.23;100.00
163;BME280;3946;48.958;8.284;2024-02-26T10:27:23;98753.09;;;12.34;100.00
163;BME280;3946;48.958;8.284;2024-02-26T10:30:19;98752.06;;;12.45;100.00
163;BME280;3946;48.958;8.284;2024-02-26T10:33:07;98751.53;;;12.23;99.41
163;BME280;3946;48.958;8.284;2024-02-26T10:35:53;98749.47;;;12.45;98.63
163;BME280;3946;48.958;8.284;2024-02-26T10:38:40;98750.84;;;12.57;97.58
163;BME280;3946;48.958;8.284;2024-02-26T10:41:27;98758.56;;;12.67;100.00
163;BME280;3946;48.958;8.284;2024-02-26T10:44:12;98760.63;;;12.99;100.00
163;BME280;3946;48.958;8.284;2024-02-26T10:46:58;98762.13;;;13.09;95.86
163;BME280;3946;48.958;8.284;2024-02-26T10:49:47;98763.66;;;12.94;94.43
163;BME280;3946;48.958;8.284;2024-02-26T10:52:34;98759.53;;;13.09;95.09
163;BME280;3946;48.958;8.284;2024-02-26T10:55:22;98775.97;;;13.36;94.92
163;BME280;3946;48.958;8.284;2024-02-26T10:58:08;98779.75;;;13.41;92.77
163;BME280;3946;48.958;8.284;2024-02-26T11:00:56;98776.22;;;13.50;92.61
163;BME280;3946;48.958;8.284;2024-02-26T11:03:42;98762.44;;;13.24;91.00
163;BME280;3946;48.958;8.284;2024-02-26T11:06:28;98754.47;;;13.25;90.46
163;BME280;3946;48.958;8.284;2024-02-26T11:09:15;98762.72;;;13.47;90.71
163;BME280;3946;48.958;8.284;2024-02-26T11:12:02;98762.75;;;13.55;89.64
163;BME280;3946;48.958;8.284;2024-02-26T11:14:51;98754.63;;;13.58;88.16
163;BME280;3946;48.958;8.284;2024-02-26T11:17:39;98761.91;;;13.46;89.43
163;BME280;3946;48.958;8.284;2024-02-26T11:20:28;98773.38;;;13.36;90.09
163;BME280;3946;48.958;8.284;2024-02-26T11:23:13;98775.16;;;13.69;88.60
163;BME280;3946;48.958;8.284;2024-02-26T11:25:59;98764.81;;;13.77;83.96
163;BME280;3946;48.958;8.284;2024-02-26T11:28:47;98754.56;;;13.84;81.14
163;BME280;3946;48.958;8.284;2024-02-26T11:31:33;98751.75;;;13.69;81.46
163;BME280;3946;48.958;8.284;2024-02-26T11:34:19;98750.25;;;13.58;82.28
163;BME280;3946;48.958;8.284;2024-02-26T11:37:11;98746.69;;;13.68;82.45
163;BME280;3946;48.958;8.284;2024-02-26T11:39:59;98748.00;;;13.63;81.92
163;BME280;3946;48.958;8.284;2024-02-26T11:42:45;98734.66;;;13.66;79.95
163;BME280;3946;48.958;8.284;2024-02-26T11:45:54;98735.88;;;13.96;79.13
163;BME280;3946;48.958;8.284;2024-02-26T11:48:43;98744.09;;;14.34;79.46
163;BME280;3946;48.958;8.284;2024-02-26T11:51:32;98742.31;;;14.34;77.96
163;BME280;3946;48.958;8.284;2024-02-26T11:54:39;98743.66;;;14.71;76.76
163;BME280;3946;48.958;8.284;2024-02-26T11:57:26;98744.66;;;14.54;74.39
163;BME280;3946;48.958;8.284;2024-02-26T12:00:13;98743.13;;;14.35;73.77
163;BME280;3946;48.958;8.284;2024-02-26T12:03:02;98744.75;;;14.36;75.74
163;BME280;3946;48.958;8.284;2024-02-26T12:05:51;98750.13;;;14.26;76.35
163;BME280;3946;48.958;8.284;2024-02-26T12:08:38;98753.22;;;14.22;75.39
163;BME280;3946;48.958;8.284;2024-02-26T12:11:27;98749.84;;;14.46;74.27
163;BME280;3946;48.958;8.284;2024-02-26T12:14:12;98757.84;;;14.60;74.77
163;BME280;3946;48.958;8.284;2024-02-26T12:16:57;98752.97;;;14.57;74.03
163;BME280;3946;48.958;8.284;2024-02-26T12:19:45;98753.09;;;14.64;74.32
163;BME280;3946;48.958;8.284;2024-02-26T12:22:30;98745.28;;;14.80;73.40
163;BME280;3946;48.958;8.284;2024-02-26T12:25:16;98743.78;;;15.18;72.65
163;BME280;3946;48.958;8.284;2024-02-26T12:28:01;98751.94;;;15.23;73.35
163;BME280;3946;48.958;8.284;2024-02-26T12:30:47;98741.13;;;15.26;71.97
163;BME280;3946;48.958;8.284;2024-02-26T12:33:32;98746.72;;;15.23;73.12
163;BME280;3946;48.958;8.284;2024-02-26T12:36:19;98762.84;;;15.19;74.22
163;BME280;3946;48.958;8.284;2024-02-26T12:39:04;98758.94;;;15.15;74.85
163;BME280;3946;48.958;8.284;2024-02-26T12:41:50;98751.16;;;15.07;74.42
163;BME280;3946;48.958;8.284;2024-02-26T12:44:36;98761.91;;;14.63;74.91
163;BME280;3946;48.958;8.284;2024-02-26T12:47:22;98764.66;;;14.61;76.85
163;BME280;3946;48.958;8.284;2024-02-26T12:50:08;98770.88;;;14.52;77.16
163;BME280;3946;48.958;8.284;2024-02-26T12:52:55;98769.03;;;14.36;76.38
163;BME280;3946;48.958;8.284;2024-02-26T12:55:42;98781.09;;;14.46;77.91
163;BME280;3946;48.958;8.284;2024-02-26T12:58:29;98790.59;;;14.55;78.87
163;BME280;3946;48.958;8.284;2024-02-26T13:01:16;98782.44;;;14.66;77.81
163;BME280;3946;48.958;8.284;2024-02-26T13:04:03;98770.22;;;14.66;77.91
163;BME280;3946;48.958;8.284;2024-02-26T13:06:50;98772.81;;;14.66;77.63
163;BME280;3946;48.958;8.284;2024-02-26T13:09:38;98773.81;;;14.82;76.04
163;BME280;3946;48.958;8.284;2024-02-26T13:12:23;98782.13;;;15.01;75.46
163;BME280;3946;48.958;8.284;2024-02-26T13:15:14;98776.72;;;14.79;75.70
163;BME280;3946;48.958;8.284;2024-02-26T13:18:09;98778.19;;;15.14;75.02
163;BME280;3946;48.958;8.284;2024-02-26T13:20:54;98762.97;;;15.58;73.81
163;BME280;3946;48.958;8.284;2024-02-26T13:23:52;98765.22;;;15.53;71.99
163;BME280;3946;48.958;8.284;2024-02-26T13:26:39;98767.16;;;15.59;73.17
163;BME280;3946;48.958;8.284;2024-02-26T13:29:24;98756.53;;;15.68;70.39
163;BME280;3946;48.958;8.284;2024-02-26T13:32:10;98761.81;;;15.44;70.95
163;BME280;3946;48.958;8.284;2024-02-26T13:35:04;98768.81;;;15.44;71.58
163;BME280;3946;48.958;8.284;2024-02-26T13:37:50;98764.47;;;15.83;70.90
163;BME280;3946;48.958;8.284;2024-02-26T13:40:35;98758.03;;;15.94;70.04
163;BME280;3946;48.958;8.284;2024-02-26T13:43:22;98761.09;;;16.05;69.54
163;BME280;3946;48.958;8.284;2024-02-26T13:46:07;98754.63;;;15.93;68.72
163;BME280;3946;48.958;8.284;2024-02-26T13:48:54;98770.19;;;15.79;69.24
163;BME280;3946;48.958;8.284;2024-02-26T13:51:40;98756.81;;;15.82;69.01
163;BME280;3946;48.958;8.284;2024-02-26T13:54:25;98770.38;;;15.77;69.79
163;BME280;3946;48.958;8.284;2024-02-26T13:57:10;98763.31;;;15.86;68.74
163;BME280;3946;48.958;8.284;2024-02-26T13:59:57;98767.09;;;15.75;70.71
163;BME280;3946;48.958;8.284;2024-02-26T14:02:42;98764.81;;;15.17;69.70
163;BME280;3946;48.958;8.284;2024-02-26T14:05:28;98771.84;;;14.84;71.10
163;BME280;3946;48.958;8.284;2024-02-26T14:08:14;98784.06;;;14.67;73.60
163;BME280;3946;48.958;8.284;2024-02-26T14:10:59;98774.31;;;14.61;73.44
163;BME280;3946;48.958;8.284;2024-02-26T14:13:46;98778.69;;;14.52;72.67
163;BME280;3946;48.958;8.284;2024-02-26T14:16:33;98780.00;;;14.73;72.82
163;BME280;3946;48.958;8.284;2024-02-26T14:19:18;98768.91;;;14.79;71.53
163;BME280;3946;48.958;8.284;2024-02-26T14:22:04;98773.81;;;14.82;71.20
163;BME280;3946;48.958;8.284;2024-02-26T14:24:49;98769.56;;;14.97;71.28
163;BME280;3946;48.958;8.284;2024-02-26T14:27:35;98765.97;;;15.06;69.76
163;BME280;3946;48.958;8.284;2024-02-26T14:30:20;98771.84;;;15.00;70.17
163;BME280;3946;48.958;8.284;2024-02-26T14:33:06;98775.91;;;14.78;70.29
163;BME280;3946;48.958;8.284;2024-02-26T14:35:53;98774.47;;;14.84;70.47
163;BME280;3946;48.958;8.284;2024-02-26T14:38:39;98773.97;;;15.04;70.86
163;BME280;3946;48.958;8.284;2024-02-26T14:41:24;98777.69;;;14.94;70.27
163;BME280;3946;48.958;8.284;2024-02-26T14:44:09;98784.06;;;14.99;70.27
163;BME280;3946;48.958;8.284;2024-02-26T14:46:55;98790.41;;;14.97;71.04
163;BME280;3946;48.958;8.284;2024-02-26T14:49:41;98792.06;;;14.90;71.00
163;BME280;3946;48.958;8.284;2024-02-26T14:52:27;98798.75;;;14.76;71.55
163;BME280;3946;48.958;8.284;2024-02-26T14:55:12;98796.13;;;14.68;71.17
163;BME280;3946;48.958;8.284;2024-02-26T14:58:01;98800.19;;;14.62;71.09
163;BME280;3946;48.958;8.284;2024-02-26T15:00:46;98805.75;;;14.76;71.04
163;BME280;3946;48.958;8.284;2024-02-26T15:03:31;98808.03;;;14.79;70.71
163;BME280;3946;48.958;8.284;2024-02-26T15:06:18;98803.97;;;14.76;70.12
163;BME280;3946;48.958;8.284;2024-02-26T15:09:03;98806.75;;;14.75;70.99
163;BME280;3946;48.958;8.284;2024-02-26T15:11:49;98800.69;;;14.66;70.45
163;BME280;3946;48.958;8.284;2024-02-26T15:14:34;98805.59;;;14.61;70.96
163;BME280;3946;48.958;8.284;2024-02-26T15:17:19;98805.09;;;14.65;70.81